createdAt,value
2023-02-21T00:00:42.123Z,9.90
2023-02-21T00:03:02.542Z,9.47
2023-02-21T00:05:22.821Z,9.77
2023-02-21T00:07:43.630Z,9.67
2023-02-21T00:10:06.204Z,9.40
2023-02-21T00:12:26.456Z,9.73
2023-02-21T00:14:46.670Z,9.57
2023-02-21T00:17:07.165Z,9.83
2023-02-21T00:19:27.837Z,9.83
2023-02-21T00:21:49.162Z,9.63
2023-02-21T00:24:09.327Z,10.60
2023-02-21T00:26:29.631Z,10.63
2023-02-21T00:28:51.430Z,11.33
2023-02-21T00:31:11.678Z,10.70
2023-02-21T00:33:32.183Z,9.97
2023-02-21T00:35:52.631Z,10.57
2023-02-21T00:38:12.942Z,10.83
2023-02-21T00:40:37.352Z,10.57
2023-02-21T00:42:57.483Z,10.47
2023-02-21T00:45:20.458Z,10.63
2023-02-21T00:47:40.804Z,11.00
2023-02-21T00:50:03.644Z,11.13
2023-02-21T00:52:24.032Z,10.67
2023-02-21T00:54:45.164Z,10.27
2023-02-21T00:57:05.793Z,10.80
2023-02-21T00:59:26.288Z,11.40
2023-02-21T01:01:46.515Z,11.10
2023-02-21T01:04:11.129Z,10.97
2023-02-21T01:06:32.976Z,11.40
2023-02-21T01:08:53.679Z,10.63
2023-02-21T01:11:14.207Z,11.37
2023-02-21T01:13:34.628Z,11.63
2023-02-21T01:15:56.962Z,10.77
2023-02-21T01:18:18.193Z,11.77
2023-02-21T01:20:42.978Z,11.70
2023-02-21T01:23:05.455Z,12.17
2023-02-21T01:25:26.349Z,11.10
2023-02-21T01:27:46.643Z,10.83
2023-02-21T01:30:08.288Z,11.23
2023-02-21T01:32:28.904Z,12.13
2023-02-21T01:34:49.486Z,12.27
2023-02-21T01:37:10.738Z,11.90
2023-02-21T01:39:32.245Z,11.47
2023-02-21T01:41:52.620Z,11.97
2023-02-21T01:44:22.988Z,12.63
2023-02-21T01:46:48.540Z,11.33
2023-02-21T01:49:11.454Z,12.40
2023-02-21T01:51:35.320Z,12.23
2023-02-21T01:53:55.317Z,12.20
2023-02-21T01:56:20.058Z,13.13
2023-02-21T01:58:43.283Z,12.93
2023-02-21T02:01:03.918Z,12.50
2023-02-21T02:03:29.851Z,12.23
2023-02-21T02:05:50.943Z,11.87
2023-02-21T02:08:12.662Z,11.70
2023-02-21T02:10:33.958Z,11.80
2023-02-21T02:12:50.360Z,12.60
2023-02-21T02:15:23.092Z,12.00
2023-02-21T02:17:42.311Z,11.63
2023-02-21T02:20:03.512Z,12.33
2023-02-21T02:22:36.182Z,11.77
2023-02-21T02:24:56.616Z,11.97
2023-02-21T02:27:39.945Z,11.63
2023-02-21T02:30:14.842Z,11.47
2023-02-21T02:32:53.412Z,12.37
2023-02-21T02:35:17.014Z,12.40
2023-02-21T02:37:52.186Z,11.73
2023-02-21T02:39:59.885Z,11.50
2023-02-21T02:42:27.694Z,12.50
2023-02-21T02:44:46.234Z,13.00
2023-02-21T02:46:51.987Z,11.73
2023-02-21T02:49:01.757Z,12.00
2023-02-21T02:51:10.566Z,12.43
2023-02-21T02:53:17.650Z,12.67
2023-02-21T02:55:46.903Z,12.87
2023-02-21T02:57:51.065Z,11.93
2023-02-21T02:59:54.178Z,12.97
2023-02-21T03:02:20.187Z,12.77
2023-02-21T03:04:33.998Z,12.93
2023-02-21T03:06:59.503Z,13.43
2023-02-21T03:09:25.111Z,13.03
2023-02-21T03:11:30.203Z,13.70
2023-02-21T03:13:58.486Z,13.67
2023-02-21T03:16:18.303Z,13.30
2023-02-21T03:18:45.794Z,15.03
2023-02-21T03:20:53.980Z,14.77
2023-02-21T03:22:57.225Z,14.07
2023-02-21T03:25:02.283Z,15.43
2023-02-21T03:27:07.429Z,15.13
2023-02-21T03:29:34.060Z,14.33
2023-02-21T03:31:48.020Z,14.30
2023-02-21T03:33:51.267Z,13.67
2023-02-21T03:35:53.789Z,13.73
2023-02-21T03:37:55.939Z,14.63
2023-02-21T03:40:00.791Z,14.50
2023-02-21T03:42:06.960Z,14.87
2023-02-21T03:44:08.878Z,14.60
2023-02-21T03:46:10.749Z,14.40
2023-02-21T03:48:17.661Z,13.60
2023-02-21T03:50:25.389Z,13.90
2023-02-21T03:52:29.814Z,13.90
2023-02-21T03:54:31.596Z,13.87
2023-02-21T03:56:42.173Z,14.33
2023-02-21T03:59:01.043Z,14.03
2023-02-21T04:01:03.674Z,13.63
2023-02-21T04:03:06.220Z,13.13
2023-02-21T04:05:14.496Z,14.33
2023-02-21T04:07:18.213Z,14.10
2023-02-21T04:09:19.984Z,15.47
2023-02-21T04:11:25.166Z,14.47
2023-02-21T04:13:28.527Z,14.27
2023-02-21T04:15:31.486Z,14.57
2023-02-21T04:17:35.710Z,14.67
2023-02-21T04:19:39.061Z,15.07
2023-02-21T04:21:41.782Z,14.90
2023-02-21T04:23:44.529Z,14.93
2023-02-21T04:25:47.495Z,15.73
2023-02-21T04:27:54.480Z,14.50
2023-02-21T04:29:58.722Z,15.40
2023-02-21T04:32:00.753Z,15.87
2023-02-21T04:34:11.709Z,15.03
2023-02-21T04:36:14.373Z,15.77
2023-02-21T04:38:17.606Z,14.00
2023-02-21T04:40:19.261Z,14.33
2023-02-21T04:42:21.074Z,15.37
2023-02-21T04:44:22.823Z,14.30
2023-02-21T04:46:24.568Z,15.03
2023-02-21T04:48:27.117Z,14.73
2023-02-21T04:50:28.794Z,15.17
2023-02-21T04:52:30.513Z,14.93
2023-02-21T04:54:34.588Z,14.37
2023-02-21T04:56:37.688Z,14.03
2023-02-21T04:58:46.130Z,13.73
2023-02-21T05:00:48.016Z,12.90
2023-02-21T05:02:49.672Z,14.57
2023-02-21T05:04:51.808Z,16.17
2023-02-21T05:06:53.483Z,14.87
2023-02-21T05:08:55.283Z,15.60
2023-02-21T05:10:57.018Z,14.60
2023-02-21T05:12:58.721Z,14.73
2023-02-21T05:15:00.370Z,14.63
2023-02-21T05:17:02.055Z,14.70
2023-02-21T05:19:05.855Z,15.03
2023-02-21T05:21:07.964Z,14.70
2023-02-21T05:23:13.674Z,15.00
2023-02-21T05:25:22.230Z,15.07
2023-02-21T05:27:23.949Z,15.30
2023-02-21T05:29:28.052Z,15.63
2023-02-21T05:31:30.988Z,16.00
2023-02-21T05:33:33.164Z,14.77
2023-02-21T05:35:34.888Z,15.37
2023-02-21T05:37:37.254Z,15.60
2023-02-21T05:39:39.468Z,15.20
2023-02-21T05:41:47.476Z,15.10
2023-02-21T05:43:49.737Z,14.97
2023-02-21T05:45:51.435Z,14.57
2023-02-21T05:47:56.235Z,14.67
2023-02-21T05:49:57.878Z,16.10
2023-02-21T05:51:59.650Z,15.83
2023-02-21T05:54:03.656Z,15.70
2023-02-21T05:56:05.443Z,16.23
2023-02-21T05:58:07.130Z,15.43
2023-02-21T06:00:17.494Z,16.17
2023-02-21T06:02:21.657Z,15.23
2023-02-21T06:04:25.038Z,16.77
2023-02-21T06:06:27.169Z,16.60
2023-02-21T06:08:28.888Z,16.13
2023-02-21T06:10:35.410Z,16.40
2023-02-21T06:12:37.155Z,16.40
2023-02-21T06:14:39.080Z,17.50
2023-02-21T06:16:43.421Z,17.77
2023-02-21T06:18:56.365Z,16.33
2023-02-21T06:20:59.084Z,16.23
2023-02-21T06:23:00.858Z,18.00
2023-02-21T06:25:02.572Z,16.83
2023-02-21T06:27:06.305Z,16.17
2023-02-21T06:29:08.568Z,15.90
2023-02-21T06:31:10.655Z,15.43
2023-02-21T06:33:12.387Z,17.00
2023-02-21T06:35:16.526Z,17.27
2023-02-21T06:37:19.199Z,16.40
2023-02-21T06:39:22.301Z,15.63
2023-02-21T06:41:26.498Z,17.67
2023-02-21T06:43:28.199Z,20.97
2023-02-21T06:45:29.851Z,17.73
2023-02-21T06:47:31.513Z,18.23
2023-02-21T06:49:33.280Z,18.67
2023-02-21T06:51:40.168Z,19.47
2023-02-21T06:53:42.762Z,17.47
2023-02-21T06:55:44.444Z,16.90
2023-02-21T06:57:48.069Z,16.83
2023-02-21T06:59:55.020Z,17.80
2023-02-21T07:01:58.915Z,16.47
2023-02-21T07:04:02.417Z,16.83
2023-02-21T07:06:04.164Z,17.50
2023-02-21T07:08:08.228Z,17.37
2023-02-21T07:10:10.330Z,17.40
2023-02-21T07:12:12.157Z,18.13
2023-02-21T07:14:14.580Z,17.30
2023-02-21T07:16:19.032Z,17.63
2023-02-21T07:18:20.898Z,17.43
2023-02-21T07:20:22.633Z,17.23
2023-02-21T07:22:27.877Z,17.70
2023-02-21T07:24:36.602Z,17.60
2023-02-21T07:26:38.697Z,17.97
2023-02-21T07:28:43.524Z,17.40
2023-02-21T07:30:45.360Z,20.03
2023-02-21T07:32:47.068Z,18.87
2023-02-21T07:34:48.828Z,20.17
2023-02-21T07:36:50.689Z,19.67
2023-02-21T07:38:52.503Z,17.80
2023-02-21T07:41:03.817Z,17.97
2023-02-21T07:43:05.520Z,17.73
2023-02-21T07:45:10.519Z,17.97
2023-02-21T07:47:12.147Z,18.20
2023-02-21T07:49:13.958Z,17.33
2023-02-21T07:51:15.961Z,17.60
2023-02-21T07:53:18.331Z,17.17
2023-02-21T07:55:21.801Z,17.50
2023-02-21T07:57:24.123Z,16.10
2023-02-21T07:59:25.832Z,17.00
2023-02-21T08:01:27.621Z,17.80
2023-02-21T08:03:32.984Z,17.57
2023-02-21T08:05:37.089Z,17.03
2023-02-21T08:07:38.729Z,17.50
2023-02-21T08:09:41.249Z,16.87
2023-02-21T08:11:44.964Z,17.03
2023-02-21T08:13:49.698Z,17.37
2023-02-21T08:15:51.371Z,16.57
2023-02-21T08:17:53.097Z,16.57
2023-02-21T08:19:56.858Z,17.87
2023-02-21T08:21:58.564Z,17.23
2023-02-21T08:24:00.241Z,17.70
2023-02-21T08:26:04.304Z,17.47
2023-02-21T08:28:06.164Z,19.23
2023-02-21T08:30:09.620Z,19.73
2023-02-21T08:32:11.358Z,20.57
2023-02-21T08:34:13.713Z,18.97
2023-02-21T08:36:15.397Z,19.50
2023-02-21T08:38:20.325Z,19.33
2023-02-21T08:40:24.446Z,19.27
2023-02-21T08:42:28.701Z,18.57
2023-02-21T08:44:32.284Z,20.30
2023-02-21T08:46:35.109Z,19.33
2023-02-21T08:48:37.382Z,18.60
2023-02-21T08:50:39.149Z,18.73
2023-02-21T08:52:40.948Z,18.33
2023-02-21T08:54:43.319Z,18.83
2023-02-21T08:56:45.043Z,19.10
2023-02-21T08:58:48.718Z,19.10
2023-02-21T09:00:50.556Z,18.63
2023-02-21T09:02:55.607Z,17.87
2023-02-21T09:04:57.315Z,19.10
2023-02-21T09:06:59.094Z,19.17
2023-02-21T09:09:00.877Z,18.70
2023-02-21T09:11:03.305Z,18.13
2023-02-21T09:13:15.421Z,18.17
2023-02-21T09:15:17.359Z,18.63
2023-02-21T09:17:23.889Z,17.87
2023-02-21T09:19:25.616Z,18.77
2023-02-21T09:21:28.336Z,19.17
2023-02-21T09:23:32.048Z,18.97
2023-02-21T09:25:33.759Z,18.90
2023-02-21T09:27:38.222Z,18.67
2023-02-21T09:29:46.537Z,18.70
2023-02-21T09:31:49.557Z,17.97
2023-02-21T09:33:51.276Z,18.83
2023-02-21T09:35:53.889Z,18.77
2023-02-21T09:38:00.929Z,18.67
2023-02-21T09:40:04.480Z,17.50
2023-02-21T09:42:06.546Z,17.57
2023-02-21T09:44:08.240Z,16.93
2023-02-21T09:46:38.898Z,17.10
2023-02-21T09:48:42.690Z,18.20
2023-02-21T09:50:52.986Z,19.27
2023-02-21T09:52:58.149Z,18.50
2023-02-21T09:55:05.293Z,18.83
2023-02-21T09:57:13.474Z,18.80
2023-02-21T09:59:16.588Z,19.33
2023-02-21T10:01:39.480Z,19.27
2023-02-21T10:03:47.117Z,20.07
2023-02-21T10:06:05.409Z,19.93
2023-02-21T10:08:10.018Z,19.17
2023-02-21T10:10:19.656Z,19.37
2023-02-21T10:12:41.071Z,17.87
2023-02-21T10:15:17.098Z,18.23
2023-02-21T10:17:38.620Z,18.30
2023-02-21T10:19:45.415Z,17.50
2023-02-21T10:21:49.316Z,17.90
2023-02-21T10:23:54.505Z,19.43
2023-02-21T10:25:59.793Z,18.93
2023-02-21T10:28:04.269Z,19.20
2023-02-21T10:30:10.259Z,18.20
2023-02-21T10:32:12.151Z,18.60
2023-02-21T10:34:28.538Z,16.63
2023-02-21T10:36:33.618Z,18.10
2023-02-21T10:38:37.534Z,17.53
2023-02-21T10:40:50.845Z,17.07
2023-02-21T10:42:57.893Z,16.47
2023-02-21T10:45:00.855Z,18.23
2023-02-21T10:47:22.284Z,17.20
2023-02-21T10:49:47.974Z,16.63
2023-02-21T10:52:24.684Z,16.53
2023-02-21T10:54:26.417Z,15.73
2023-02-21T10:56:28.841Z,15.97
2023-02-21T10:58:36.598Z,16.20
2023-02-21T11:00:49.866Z,16.20
2023-02-21T11:03:03.597Z,15.27
2023-02-21T11:05:14.310Z,15.63
2023-02-21T11:07:18.203Z,16.37
2023-02-21T11:09:41.558Z,15.27
2023-02-21T11:12:06.535Z,13.83
2023-02-21T11:14:14.196Z,14.27
2023-02-21T11:16:19.053Z,14.40
2023-02-21T11:18:23.004Z,14.80
2023-02-21T11:20:29.991Z,13.33
2023-02-21T11:22:35.292Z,12.90
2023-02-21T11:25:00.798Z,12.67
2023-02-21T11:27:02.595Z,12.90
2023-02-21T11:29:19.121Z,13.30
2023-02-21T11:31:34.553Z,11.87
2023-02-21T11:33:41.284Z,10.13
2023-02-21T11:36:05.980Z,11.13
2023-02-21T11:38:29.175Z,10.43
2023-02-21T11:40:51.105Z,10.97
2023-02-21T11:43:23.039Z,9.97
2023-02-21T11:45:30.149Z,9.97
2023-02-21T11:47:39.675Z,9.90
2023-02-21T11:50:04.341Z,10.17
2023-02-21T11:52:14.215Z,10.17
2023-02-21T11:54:16.450Z,9.37
2023-02-21T11:56:21.991Z,9.90
2023-02-21T11:58:42.121Z,9.43
2023-02-21T12:01:06.297Z,9.13
2023-02-21T12:03:24.156Z,8.50
2023-02-21T12:05:54.446Z,8.50
2023-02-21T12:08:15.195Z,9.50
2023-02-21T12:10:54.425Z,9.37
2023-02-21T12:13:06.858Z,7.60
2023-02-21T12:15:21.714Z,8.40
2023-02-21T12:17:59.231Z,8.73
2023-02-21T12:20:06.843Z,8.33
2023-02-21T12:22:42.571Z,7.87
2023-02-21T12:25:08.663Z,8.67
2023-02-21T12:27:17.047Z,8.83
2023-02-21T12:29:32.259Z,8.67
2023-02-21T12:31:48.664Z,8.60
2023-02-21T12:34:26.621Z,8.73
2023-02-21T12:36:45.086Z,8.80
2023-02-21T12:39:02.106Z,8.83
2023-02-21T12:41:19.731Z,8.43
2023-02-21T12:43:28.160Z,9.33
2023-02-21T12:46:02.718Z,7.90
2023-02-21T12:48:42.686Z,8.73
2023-02-21T12:50:50.736Z,7.93
2023-02-21T12:53:07.964Z,8.53
2023-02-21T12:55:23.539Z,8.20
2023-02-21T12:57:56.805Z,7.53
2023-02-21T13:00:17.349Z,9.23
2023-02-21T13:02:42.537Z,8.70
2023-02-21T13:04:56.416Z,8.10
2023-02-21T13:07:25.558Z,8.03
2023-02-21T13:09:42.151Z,7.70
2023-02-21T13:12:01.430Z,8.43
2023-02-21T13:14:08.035Z,8.40
2023-02-21T13:16:13.048Z,8.10
2023-02-21T13:18:16.003Z,7.03
2023-02-21T13:20:21.015Z,7.43
2023-02-21T13:23:03.552Z,6.50
2023-02-21T13:25:35.865Z,6.87
2023-02-21T13:28:05.430Z,7.40
2023-02-21T13:30:17.946Z,7.93
2023-02-21T13:32:20.430Z,7.07
2023-02-21T13:34:27.161Z,7.53
2023-02-21T13:36:33.237Z,7.60
2023-02-21T13:38:37.849Z,7.33
2023-02-21T13:41:12.790Z,7.50
2023-02-21T13:43:29.966Z,6.93
2023-02-21T13:45:34.313Z,7.20
2023-02-21T13:47:58.101Z,7.33
2023-02-21T13:49:59.935Z,7.77
2023-02-21T13:52:19.858Z,8.37
2023-02-21T13:54:26.506Z,7.63
2023-02-21T13:56:44.242Z,7.33
2023-02-21T13:58:48.700Z,8.37
2023-02-21T14:00:52.304Z,8.60
2023-02-21T14:03:06.441Z,9.20
2023-02-21T14:05:10.279Z,8.23
2023-02-21T14:07:11.905Z,8.00
2023-02-21T14:09:18.080Z,8.33
2023-02-21T14:11:28.479Z,7.77
2023-02-21T14:14:11.091Z,7.70
2023-02-21T14:16:12.804Z,7.57
2023-02-21T14:18:34.075Z,8.47
2023-02-21T14:20:38.781Z,9.10
2023-02-21T14:22:40.463Z,8.23
2023-02-21T14:24:51.351Z,7.97
2023-02-21T14:26:52.984Z,7.63
2023-02-21T14:28:57.754Z,8.33
2023-02-21T14:31:04.479Z,7.87
2023-02-21T14:33:20.867Z,8.43
2023-02-21T14:35:24.967Z,7.67
2023-02-21T14:37:38.082Z,7.27
2023-02-21T14:39:43.798Z,7.20
2023-02-21T14:42:06.817Z,7.87
2023-02-21T14:44:35.562Z,7.93
2023-02-21T14:47:13.337Z,7.90
2023-02-21T14:49:23.162Z,8.07
2023-02-21T14:51:43.495Z,7.20
2023-02-21T14:54:14.857Z,7.50
2023-02-21T14:56:37.104Z,7.83
2023-02-21T14:58:55.879Z,8.20
2023-02-21T15:01:09.773Z,8.30
2023-02-21T15:03:43.450Z,7.10
2023-02-21T15:06:03.664Z,7.23
2023-02-21T15:08:16.547Z,7.67
2023-02-21T15:10:29.266Z,6.93
2023-02-21T15:12:39.560Z,7.47
2023-02-21T15:14:50.664Z,6.87
2023-02-21T15:17:14.212Z,7.23
2023-02-21T15:19:38.609Z,7.00
2023-02-21T15:21:40.317Z,7.27
2023-02-21T15:23:44.403Z,7.77
2023-02-21T15:25:55.157Z,7.50
2023-02-21T15:27:59.331Z,7.50
2023-02-21T15:30:24.475Z,7.27
2023-02-21T15:32:26.283Z,7.10
2023-02-21T15:34:47.104Z,7.90
2023-02-21T15:37:04.085Z,7.13
2023-02-21T15:39:26.143Z,7.67
2023-02-21T15:41:45.876Z,8.00
2023-02-21T15:44:08.825Z,7.00
2023-02-21T15:46:16.121Z,6.93
2023-02-21T15:48:17.900Z,6.93
2023-02-21T15:50:42.444Z,7.47
2023-02-21T15:52:51.432Z,6.70
2023-02-21T15:55:15.668Z,7.33
2023-02-21T15:57:24.075Z,7.13
2023-02-21T15:59:27.715Z,8.80
2023-02-21T16:01:29.413Z,8.20
2023-02-21T16:03:34.172Z,7.33
2023-02-21T16:05:36.118Z,6.80
2023-02-21T16:07:40.687Z,6.60
2023-02-21T16:09:49.255Z,7.13
2023-02-21T16:12:11.145Z,6.73
2023-02-21T16:14:39.389Z,7.37
2023-02-21T16:16:44.171Z,8.17
2023-02-21T16:18:56.461Z,7.60
2023-02-21T16:21:03.659Z,7.17
2023-02-21T16:23:23.593Z,7.17
2023-02-21T16:25:27.650Z,6.90
2023-02-21T16:27:32.275Z,7.50
2023-02-21T16:29:34.561Z,6.97
2023-02-21T16:31:37.000Z,6.53
2023-02-21T16:33:41.136Z,7.30
2023-02-21T16:35:43.388Z,8.10
2023-02-21T16:37:45.097Z,8.27
2023-02-21T16:39:50.118Z,7.63
2023-02-21T16:41:52.168Z,8.37
2023-02-21T16:43:59.035Z,8.13
2023-02-21T16:46:00.905Z,8.33
2023-02-21T16:48:05.271Z,8.17
2023-02-21T16:50:18.878Z,7.57
2023-02-21T16:52:22.049Z,9.57
2023-02-21T16:54:23.844Z,12.43
2023-02-21T16:56:25.633Z,15.90
2023-02-21T16:58:31.203Z,11.13
2023-02-21T17:00:33.748Z,9.70
2023-02-21T17:02:35.539Z,11.50
2023-02-21T17:04:37.325Z,12.20
2023-02-21T17:06:39.079Z,11.23
2023-02-21T17:08:40.847Z,11.57
2023-02-21T17:10:42.559Z,9.60
2023-02-21T17:12:44.298Z,10.60
2023-02-21T17:14:46.064Z,10.17
2023-02-21T17:16:49.209Z,9.40
2023-02-21T17:18:50.823Z,11.00
2023-02-21T17:20:52.445Z,10.13
2023-02-21T17:22:54.777Z,9.20
2023-02-21T17:24:57.072Z,9.50
2023-02-21T17:27:01.078Z,9.30
2023-02-21T17:29:03.407Z,9.90
2023-02-21T17:31:05.171Z,9.77
2023-02-21T17:33:08.138Z,8.53
2023-02-21T17:35:15.498Z,7.93
2023-02-21T17:37:17.235Z,7.57
2023-02-21T17:39:21.912Z,7.77
2023-02-21T17:41:26.668Z,7.47
2023-02-21T17:43:28.386Z,7.20
2023-02-21T17:45:30.028Z,7.43
2023-02-21T17:47:36.922Z,7.17
2023-02-21T17:49:38.913Z,6.30
2023-02-21T17:51:40.779Z,6.13
2023-02-21T17:53:42.507Z,6.50
2023-02-21T17:55:46.230Z,7.40
2023-02-21T17:57:48.053Z,7.23
2023-02-21T17:59:50.548Z,6.70
2023-02-21T18:01:56.853Z,7.33
2023-02-21T18:04:01.166Z,7.37
2023-02-21T18:06:02.865Z,7.73
2023-02-21T18:08:04.945Z,7.30
2023-02-21T18:10:06.972Z,7.10
2023-02-21T18:12:10.863Z,7.70
2023-02-21T18:14:14.765Z,7.00
2023-02-21T18:16:16.543Z,7.40
2023-02-21T18:18:19.832Z,7.00
2023-02-21T18:20:21.906Z,7.37
2023-02-21T18:22:26.427Z,7.93
2023-02-21T18:24:28.113Z,7.27
2023-02-21T18:26:29.903Z,7.60
2023-02-21T18:28:34.464Z,8.07
2023-02-21T18:30:36.324Z,8.43
2023-02-21T18:32:42.614Z,6.93
2023-02-21T18:34:51.552Z,7.90
2023-02-21T18:36:54.794Z,7.93
2023-02-21T18:38:58.087Z,7.30
2023-02-21T18:41:02.243Z,7.63
2023-02-21T18:43:07.917Z,7.50
2023-02-21T18:45:12.730Z,7.80
2023-02-21T18:47:16.865Z,7.47
2023-02-21T18:49:18.535Z,7.63
2023-02-21T18:51:20.683Z,7.47
2023-02-21T18:53:29.884Z,7.40
2023-02-21T18:55:32.212Z,7.53
2023-02-21T18:57:34.499Z,7.27
2023-02-21T18:59:40.496Z,7.43
2023-02-21T19:01:42.250Z,7.17
2023-02-21T19:03:44.983Z,7.67
2023-02-21T19:05:48.118Z,6.97
2023-02-21T19:07:51.745Z,6.90
2023-02-21T19:09:55.320Z,7.30
2023-02-21T19:11:56.979Z,7.47
2023-02-21T19:13:58.616Z,7.23
2023-02-21T19:16:02.552Z,6.63
2023-02-21T19:18:04.380Z,7.07
2023-02-21T19:20:13.874Z,7.00
2023-02-21T19:22:15.602Z,6.90
2023-02-21T19:24:19.625Z,6.70
2023-02-21T19:26:21.296Z,6.57
2023-02-21T19:28:28.708Z,7.00
2023-02-21T19:30:36.928Z,6.97
2023-02-21T19:32:40.865Z,7.83
2023-02-21T19:34:44.318Z,7.37
2023-02-21T19:36:47.183Z,7.47
2023-02-21T19:38:49.310Z,7.57
2023-02-21T19:40:51.167Z,8.27
2023-02-21T19:42:52.827Z,8.90
2023-02-21T19:44:54.483Z,8.77
2023-02-21T19:46:56.421Z,9.07
2023-02-21T19:48:59.553Z,8.30
2023-02-21T19:51:04.302Z,8.97
2023-02-21T19:53:05.982Z,8.23
2023-02-21T19:55:08.492Z,7.67
2023-02-21T19:57:10.221Z,8.30
2023-02-21T19:59:12.218Z,8.10
2023-02-21T20:01:17.786Z,7.77
2023-02-21T20:03:19.652Z,7.67
2023-02-21T20:05:21.915Z,7.93
2023-02-21T20:07:23.662Z,7.57
2023-02-21T20:09:27.471Z,7.67
2023-02-21T20:11:29.458Z,7.70
2023-02-21T20:13:31.127Z,8.00
2023-02-21T20:15:34.706Z,7.70
2023-02-21T20:17:37.603Z,7.97
2023-02-21T20:19:39.348Z,7.63
2023-02-21T20:21:43.886Z,7.53
2023-02-21T20:23:48.134Z,7.30
2023-02-21T20:25:50.303Z,7.70
2023-02-21T20:27:52.237Z,6.97
2023-02-21T20:29:53.920Z,7.70
2023-02-21T20:31:56.201Z,7.53
2023-02-21T20:34:04.930Z,6.97
2023-02-21T20:36:07.730Z,7.50
2023-02-21T20:38:10.769Z,7.60
2023-02-21T20:40:18.650Z,7.27
2023-02-21T20:42:23.755Z,7.40
2023-02-21T20:44:27.243Z,7.37
2023-02-21T20:46:29.193Z,7.13
2023-02-21T20:48:32.259Z,6.90
2023-02-21T20:50:34.766Z,6.60
2023-02-21T20:52:36.584Z,6.80
2023-02-21T20:54:38.388Z,6.50
2023-02-21T20:57:09.422Z,6.30
2023-02-21T20:59:19.658Z,5.77
2023-02-21T21:01:21.427Z,5.70
2023-02-21T21:03:24.356Z,5.83
2023-02-21T21:05:28.244Z,5.00
2023-02-21T21:07:29.919Z,5.83
2023-02-21T21:09:36.127Z,5.13
2023-02-21T21:11:37.996Z,5.60
2023-02-21T21:13:39.704Z,5.23
2023-02-21T21:15:41.670Z,5.67
2023-02-21T21:17:43.518Z,5.20
2023-02-21T21:19:47.887Z,5.30
2023-02-21T21:21:51.439Z,5.23
2023-02-21T21:23:53.122Z,5.70
2023-02-21T21:26:01.886Z,5.37
2023-02-21T21:28:12.137Z,5.27
2023-02-21T21:30:19.667Z,5.27
2023-02-21T21:32:23.455Z,5.73
2023-02-21T21:34:26.861Z,6.03
2023-02-21T21:36:28.681Z,5.67
2023-02-21T21:38:32.604Z,6.30
2023-02-21T21:40:34.541Z,5.93
2023-02-21T21:42:36.740Z,5.97
2023-02-21T21:44:44.114Z,5.30
2023-02-21T21:46:47.191Z,5.40
2023-02-21T21:48:48.983Z,5.30
2023-02-21T21:50:51.085Z,5.53
2023-02-21T21:53:00.082Z,5.10
2023-02-21T21:55:02.358Z,5.53
2023-02-21T21:57:05.423Z,5.73
2023-02-21T21:59:08.898Z,6.10
2023-02-21T22:01:10.721Z,6.13
2023-02-21T22:03:14.537Z,6.77
2023-02-21T22:05:18.640Z,6.80
2023-02-21T22:07:20.584Z,6.40
2023-02-21T22:09:22.820Z,7.87
2023-02-21T22:11:26.142Z,9.37
2023-02-21T22:13:33.808Z,9.50
2023-02-21T22:15:35.768Z,8.77
2023-02-21T22:17:37.857Z,9.10
2023-02-21T22:19:39.568Z,8.50
2023-02-21T22:21:43.051Z,8.50
2023-02-21T22:23:44.784Z,8.87
2023-02-21T22:25:50.159Z,9.47
2023-02-21T22:27:52.115Z,9.60
2023-02-21T22:29:53.775Z,8.67
2023-02-21T22:31:56.214Z,9.10
2023-02-21T22:34:01.924Z,6.90
2023-02-21T22:36:06.878Z,6.40
2023-02-21T22:38:16.145Z,5.10
2023-02-21T22:40:24.147Z,4.97
2023-02-21T22:42:26.123Z,5.00
2023-02-21T22:44:27.965Z,4.43
2023-02-21T22:46:42.463Z,4.67
2023-02-21T22:48:44.794Z,4.63
2023-02-21T22:50:47.392Z,4.33
2023-02-21T22:52:57.330Z,4.30
2023-02-21T22:54:59.108Z,4.23
2023-02-21T22:57:06.548Z,4.37
2023-02-21T22:59:08.256Z,4.33
2023-02-21T23:01:09.890Z,5.03
2023-02-21T23:03:14.459Z,4.90
2023-02-21T23:05:20.898Z,4.10
2023-02-21T23:07:24.576Z,3.57
2023-02-21T23:09:30.235Z,4.03
2023-02-21T23:11:31.919Z,3.67
2023-02-21T23:13:46.387Z,3.53
2023-02-21T23:15:54.718Z,3.57
2023-02-21T23:17:57.650Z,3.30
2023-02-21T23:19:59.319Z,3.30
2023-02-21T23:22:01.417Z,3.07
2023-02-21T23:24:07.307Z,3.30
2023-02-21T23:26:15.774Z,3.53
2023-02-21T23:28:18.381Z,3.87
2023-02-21T23:30:20.835Z,3.60
2023-02-21T23:32:22.639Z,3.70
2023-02-21T23:34:39.833Z,3.60
2023-02-21T23:36:43.149Z,4.20
2023-02-21T23:38:46.032Z,3.80
2023-02-21T23:40:58.135Z,3.87
2023-02-21T23:43:01.098Z,3.77
2023-02-21T23:45:02.823Z,3.80
2023-02-21T23:47:08.190Z,3.50
2023-02-21T23:49:15.402Z,3.67
2023-02-21T23:51:18.073Z,3.43
2023-02-21T23:53:24.565Z,3.87
2023-02-21T23:55:30.206Z,3.43
2023-02-21T23:57:31.905Z,3.07
2023-02-21T23:59:35.358Z,3.03
